sensor_id;sensor_type;location;lat;lon;timestamp;P1;durP1;ratioP1;P2;durP2;ratioP2
50483;SDS011;36409;52.168;20.878;2023-05-10T00:02:06;12.17;;;6.70;;
50483;SDS011;36409;52.168;20.878;2023-05-10T00:04:35;12.73;;;6.63;;
50483;SDS011;36409;52.168;20.878;2023-05-10T00:07:04;12.40;;;6.10;;
50483;SDS011;36409;52.168;20.878;2023-05-10T00:09:36;12.43;;;6.13;;
50483;SDS011;36409;52.168;20.878;2023-05-10T00:12:06;13.00;;;6.53;;
50483;SDS011;36409;52.168;20.878;2023-05-10T00:14:35;11.67;;;5.47;;
50483;SDS011;36409;52.168;20.878;2023-05-10T00:17:08;14.00;;;6.10;;
50483;SDS011;36409;52.168;20.878;2023-05-10T00:19:36;10.67;;;6.10;;
50483;SDS011;36409;52.168;20.878;2023-05-10T00:22:06;13.50;;;6.70;;
50483;SDS011;36409;52.168;20.878;2023-05-10T00:24:35;10.07;;;5.83;;
50483;SDS011;36409;52.168;20.878;2023-05-10T00:27:04;9.70;;;5.20;;
50483;SDS011;36409;52.168;20.878;2023-05-10T00:29:35;11.45;;;5.55;;
50483;SDS011;36409;52.168;20.878;2023-05-10T00:32:04;16.67;;;5.97;;
50483;SDS011;36409;52.168;20.878;2023-05-10T00:34:33;12.37;;;6.30;;
50483;SDS011;36409;52.168;20.878;2023-05-10T00:37:02;12.67;;;6.23;;
50483;SDS011;36409;52.168;20.878;2023-05-10T00:39:36;10.97;;;5.60;;
50483;SDS011;36409;52.168;20.878;2023-05-10T00:42:05;11.47;;;5.37;;
50483;SDS011;36409;52.168;20.878;2023-05-10T00:44:34;11.77;;;5.27;;
50483;SDS011;36409;52.168;20.878;2023-05-10T00:47:03;11.07;;;5.10;;
50483;SDS011;36409;52.168;20.878;2023-05-10T00:49:33;11.23;;;5.00;;
50483;SDS011;36409;52.168;20.878;2023-05-10T00:52:03;14.40;;;5.30;;
50483;SDS011;36409;52.168;20.878;2023-05-10T00:54:33;11.43;;;4.80;;
50483;SDS011;36409;52.168;20.878;2023-05-10T00:57:03;13.73;;;5.23;;
50483;SDS011;36409;52.168;20.878;2023-05-10T00:59:32;11.97;;;5.33;;
50483;SDS011;36409;52.168;20.878;2023-05-10T01:02:03;9.77;;;4.80;;
50483;SDS011;36409;52.168;20.878;2023-05-10T01:04:33;12.87;;;4.37;;
50483;SDS011;36409;52.168;20.878;2023-05-10T01:07:07;13.57;;;4.90;;
50483;SDS011;36409;52.168;20.878;2023-05-10T01:09:35;11.03;;;4.57;;
50483;SDS011;36409;52.168;20.878;2023-05-10T01:12:05;9.00;;;4.60;;
50483;SDS011;36409;52.168;20.878;2023-05-10T01:14:37;10.87;;;4.97;;
50483;SDS011;36409;52.168;20.878;2023-05-10T01:17:07;9.47;;;4.30;;
50483;SDS011;36409;52.168;20.878;2023-05-10T01:19:38;10.33;;;4.70;;
50483;SDS011;36409;52.168;20.878;2023-05-10T01:22:11;8.77;;;4.37;;
50483;SDS011;36409;52.168;20.878;2023-05-10T01:25:00;8.07;;;4.17;;
50483;SDS011;36409;52.168;20.878;2023-05-10T01:31:11;9.35;;;4.45;;
50483;SDS011;36409;52.168;20.878;2023-05-10T01:33:55;11.33;;;4.70;;
50483;SDS011;36409;52.168;20.878;2023-05-10T01:36:38;11.93;;;4.93;;
50483;SDS011;36409;52.168;20.878;2023-05-10T01:39:15;10.33;;;4.83;;
50483;SDS011;36409;52.168;20.878;2023-05-10T01:41:51;10.10;;;4.47;;
50483;SDS011;36409;52.168;20.878;2023-05-10T01:44:26;12.47;;;5.07;;
50483;SDS011;36409;52.168;20.878;2023-05-10T01:47:04;9.00;;;4.57;;
50483;SDS011;36409;52.168;20.878;2023-05-10T01:49:39;11.00;;;5.07;;
50483;SDS011;36409;52.168;20.878;2023-05-10T01:52:12;9.03;;;4.95;;
50483;SDS011;36409;52.168;20.878;2023-05-10T01:54:44;10.13;;;4.60;;
50483;SDS011;36409;52.168;20.878;2023-05-10T01:57:26;13.67;;;5.40;;
50483;SDS011;36409;52.168;20.878;2023-05-10T02:00:09;11.83;;;5.63;;
50483;SDS011;36409;52.168;20.878;2023-05-10T02:02:44;9.77;;;5.00;;
50483;SDS011;36409;52.168;20.878;2023-05-10T02:05:15;12.33;;;5.63;;
50483;SDS011;36409;52.168;20.878;2023-05-10T02:07:45;13.10;;;5.70;;
50483;SDS011;36409;52.168;20.878;2023-05-10T02:10:15;9.70;;;5.00;;
50483;SDS011;36409;52.168;20.878;2023-05-10T02:12:48;12.80;;;5.37;;
50483;SDS011;36409;52.168;20.878;2023-05-10T02:15:20;9.87;;;5.00;;
50483;SDS011;36409;52.168;20.878;2023-05-10T02:17:50;16.30;;;5.43;;
50483;SDS011;36409;52.168;20.878;2023-05-10T02:20:25;9.30;;;5.00;;
50483;SDS011;36409;52.168;20.878;2023-05-10T02:22:55;8.47;;;4.63;;
50483;SDS011;36409;52.168;20.878;2023-05-10T02:25:26;10.10;;;5.00;;
50483;SDS011;36409;52.168;20.878;2023-05-10T02:28:00;11.27;;;5.00;;
50483;SDS011;36409;52.168;20.878;2023-05-10T02:30:32;15.83;;;6.00;;
50483;SDS011;36409;52.168;20.878;2023-05-10T02:33:03;10.33;;;4.63;;
50483;SDS011;36409;52.168;20.878;2023-05-10T02:35:35;8.37;;;4.80;;
50483;SDS011;36409;52.168;20.878;2023-05-10T02:38:06;9.27;;;4.77;;
50483;SDS011;36409;52.168;20.878;2023-05-10T02:40:36;8.80;;;4.20;;
50483;SDS011;36409;52.168;20.878;2023-05-10T02:43:09;8.57;;;4.60;;
50483;SDS011;36409;52.168;20.878;2023-05-10T02:45:42;11.48;;;5.20;;
50483;SDS011;36409;52.168;20.878;2023-05-10T02:48:15;8.33;;;4.70;;
50483;SDS011;36409;52.168;20.878;2023-05-10T02:50:46;10.67;;;5.00;;
50483;SDS011;36409;52.168;20.878;2023-05-10T02:53:20;9.43;;;5.40;;
50483;SDS011;36409;52.168;20.878;2023-05-10T02:55:57;13.30;;;5.07;;
50483;SDS011;36409;52.168;20.878;2023-05-10T02:58:37;8.50;;;4.73;;
50483;SDS011;36409;52.168;20.878;2023-05-10T03:01:06;10.07;;;4.97;;
50483;SDS011;36409;52.168;20.878;2023-05-10T03:03:37;11.60;;;5.47;;
50483;SDS011;36409;52.168;20.878;2023-05-10T03:06:06;12.77;;;5.00;;
50483;SDS011;36409;52.168;20.878;2023-05-10T03:08:38;9.43;;;5.17;;
50483;SDS011;36409;52.168;20.878;2023-05-10T03:11:20;11.13;;;5.17;;
50483;SDS011;36409;52.168;20.878;2023-05-10T03:14:13;9.10;;;5.17;;
50483;SDS011;36409;52.168;20.878;2023-05-10T03:16:58;13.17;;;5.67;;
50483;SDS011;36409;52.168;20.878;2023-05-10T03:19:37;12.23;;;5.47;;
50483;SDS011;36409;52.168;20.878;2023-05-10T03:22:11;10.17;;;5.60;;
50483;SDS011;36409;52.168;20.878;2023-05-10T03:24:48;8.87;;;5.07;;
50483;SDS011;36409;52.168;20.878;2023-05-10T03:27:19;10.03;;;5.37;;
50483;SDS011;36409;52.168;20.878;2023-05-10T03:29:53;11.15;;;5.60;;
50483;SDS011;36409;52.168;20.878;2023-05-10T03:32:25;11.50;;;4.90;;
50483;SDS011;36409;52.168;20.878;2023-05-10T03:35:03;12.10;;;5.17;;
50483;SDS011;36409;52.168;20.878;2023-05-10T03:37:36;10.33;;;4.73;;
50483;SDS011;36409;52.168;20.878;2023-05-10T03:40:10;10.03;;;5.33;;
50483;SDS011;36409;52.168;20.878;2023-05-10T03:42:41;10.63;;;5.40;;
50483;SDS011;36409;52.168;20.878;2023-05-10T03:45:10;11.70;;;5.70;;
50483;SDS011;36409;52.168;20.878;2023-05-10T03:47:39;13.77;;;5.70;;
50483;SDS011;36409;52.168;20.878;2023-05-10T03:50:10;13.00;;;5.50;;
50483;SDS011;36409;52.168;20.878;2023-05-10T03:52:39;10.03;;;5.40;;
50483;SDS011;36409;52.168;20.878;2023-05-10T03:55:08;9.73;;;4.83;;
50483;SDS011;36409;52.168;20.878;2023-05-10T03:57:38;10.37;;;5.67;;
50483;SDS011;36409;52.168;20.878;2023-05-10T04:00:08;11.40;;;5.60;;
50483;SDS011;36409;52.168;20.878;2023-05-10T04:02:47;10.53;;;5.40;;
50483;SDS011;36409;52.168;20.878;2023-05-10T04:05:19;11.65;;;5.10;;
50483;SDS011;36409;52.168;20.878;2023-05-10T04:07:51;11.00;;;5.27;;
50483;SDS011;36409;52.168;20.878;2023-05-10T04:10:22;14.87;;;6.10;;
50483;SDS011;36409;52.168;20.878;2023-05-10T04:12:51;10.00;;;4.90;;
50483;SDS011;36409;52.168;20.878;2023-05-10T04:15:20;13.37;;;5.20;;
50483;SDS011;36409;52.168;20.878;2023-05-10T04:17:49;11.80;;;4.55;;
50483;SDS011;36409;52.168;20.878;2023-05-10T04:20:18;11.03;;;5.07;;
50483;SDS011;36409;52.168;20.878;2023-05-10T04:22:48;8.73;;;5.10;;
50483;SDS011;36409;52.168;20.878;2023-05-10T04:25:16;13.60;;;6.27;;
50483;SDS011;36409;52.168;20.878;2023-05-10T04:27:48;11.13;;;5.10;;
50483;SDS011;36409;52.168;20.878;2023-05-10T04:30:20;8.50;;;4.70;;
50483;SDS011;36409;52.168;20.878;2023-05-10T04:32:49;10.87;;;5.40;;
50483;SDS011;36409;52.168;20.878;2023-05-10T04:35:18;8.07;;;4.53;;
50483;SDS011;36409;52.168;20.878;2023-05-10T04:37:54;15.17;;;8.13;;
50483;SDS011;36409;52.168;20.878;2023-05-10T04:40:23;38.05;;;29.85;;
50483;SDS011;36409;52.168;20.878;2023-05-10T04:42:56;16.15;;;8.70;;
50483;SDS011;36409;52.168;20.878;2023-05-10T04:45:25;8.87;;;5.43;;
50483;SDS011;36409;52.168;20.878;2023-05-10T04:47:54;10.27;;;4.97;;
50483;SDS011;36409;52.168;20.878;2023-05-10T04:50:23;10.37;;;5.17;;
50483;SDS011;36409;52.168;20.878;2023-05-10T04:52:52;11.83;;;5.93;;
50483;SDS011;36409;52.168;20.878;2023-05-10T04:55:21;9.40;;;6.10;;
50483;SDS011;36409;52.168;20.878;2023-05-10T04:57:50;10.63;;;4.83;;
50483;SDS011;36409;52.168;20.878;2023-05-10T05:00:20;8.93;;;4.87;;
50483;SDS011;36409;52.168;20.878;2023-05-10T05:02:49;6.43;;;3.90;;
50483;SDS011;36409;52.168;20.878;2023-05-10T05:05:18;7.63;;;4.30;;
50483;SDS011;36409;52.168;20.878;2023-05-10T05:07:48;13.30;;;4.53;;
50483;SDS011;36409;52.168;20.878;2023-05-10T05:10:18;9.70;;;5.77;;
50483;SDS011;36409;52.168;20.878;2023-05-10T05:12:47;7.67;;;4.43;;
50483;SDS011;36409;52.168;20.878;2023-05-10T05:15:16;10.93;;;4.17;;
50483;SDS011;36409;52.168;20.878;2023-05-10T05:17:46;7.23;;;4.30;;
50483;SDS011;36409;52.168;20.878;2023-05-10T05:20:15;8.30;;;3.87;;
50483;SDS011;36409;52.168;20.878;2023-05-10T05:22:47;11.97;;;4.50;;
50483;SDS011;36409;52.168;20.878;2023-05-10T05:25:17;9.90;;;4.43;;
50483;SDS011;36409;52.168;20.878;2023-05-10T05:27:46;7.00;;;3.97;;
50483;SDS011;36409;52.168;20.878;2023-05-10T05:30:15;11.53;;;4.37;;
50483;SDS011;36409;52.168;20.878;2023-05-10T05:32:45;12.40;;;4.20;;
50483;SDS011;36409;52.168;20.878;2023-05-10T05:35:14;13.00;;;4.20;;
50483;SDS011;36409;52.168;20.878;2023-05-10T05:37:45;12.10;;;4.70;;
50483;SDS011;36409;52.168;20.878;2023-05-10T05:40:14;12.40;;;4.83;;
50483;SDS011;36409;52.168;20.878;2023-05-10T05:42:43;13.33;;;4.10;;
50483;SDS011;36409;52.168;20.878;2023-05-10T05:45:21;8.23;;;3.43;;
50483;SDS011;36409;52.168;20.878;2023-05-10T05:47:50;9.20;;;4.03;;
50483;SDS011;36409;52.168;20.878;2023-05-10T05:50:19;14.40;;;4.27;;
50483;SDS011;36409;52.168;20.878;2023-05-10T05:52:48;7.47;;;3.37;;
50483;SDS011;36409;52.168;20.878;2023-05-10T05:55:19;12.03;;;3.63;;
50483;SDS011;36409;52.168;20.878;2023-05-10T05:57:53;13.30;;;3.97;;
50483;SDS011;36409;52.168;20.878;2023-05-10T06:00:22;5.70;;;3.03;;
50483;SDS011;36409;52.168;20.878;2023-05-10T06:02:51;10.20;;;3.83;;
50483;SDS011;36409;52.168;20.878;2023-05-10T06:05:20;13.43;;;4.10;;
50483;SDS011;36409;52.168;20.878;2023-05-10T06:07:49;9.97;;;3.57;;
50483;SDS011;36409;52.168;20.878;2023-05-10T06:10:22;9.77;;;3.40;;
50483;SDS011;36409;52.168;20.878;2023-05-10T06:12:52;8.67;;;4.03;;
50483;SDS011;36409;52.168;20.878;2023-05-10T06:15:21;10.47;;;3.70;;
50483;SDS011;36409;52.168;20.878;2023-05-10T06:17:51;10.10;;;3.33;;
50483;SDS011;36409;52.168;20.878;2023-05-10T06:20:20;10.50;;;3.27;;
50483;SDS011;36409;52.168;20.878;2023-05-10T06:22:59;9.47;;;3.73;;
50483;SDS011;36409;52.168;20.878;2023-05-10T06:25:28;10.07;;;3.43;;
50483;SDS011;36409;52.168;20.878;2023-05-10T06:27:57;11.33;;;3.20;;
50483;SDS011;36409;52.168;20.878;2023-05-10T06:30:29;11.10;;;3.00;;
50483;SDS011;36409;52.168;20.878;2023-05-10T06:33:00;12.20;;;3.70;;
50483;SDS011;36409;52.168;20.878;2023-05-10T06:35:29;5.97;;;2.90;;
50483;SDS011;36409;52.168;20.878;2023-05-10T06:37:59;11.03;;;3.57;;
50483;SDS011;36409;52.168;20.878;2023-05-10T06:40:28;9.70;;;2.80;;
50483;SDS011;36409;52.168;20.878;2023-05-10T06:42:57;6.90;;;2.63;;
50483;SDS011;36409;52.168;20.878;2023-05-10T06:45:26;9.57;;;2.87;;
50483;SDS011;36409;52.168;20.878;2023-05-10T06:47:58;14.93;;;3.20;;
50483;SDS011;36409;52.168;20.878;2023-05-10T06:50:28;15.83;;;3.47;;
50483;SDS011;36409;52.168;20.878;2023-05-10T06:52:58;8.87;;;2.90;;
50483;SDS011;36409;52.168;20.878;2023-05-10T06:55:30;11.37;;;2.93;;
50483;SDS011;36409;52.168;20.878;2023-05-10T06:57:59;5.87;;;2.80;;
50483;SDS011;36409;52.168;20.878;2023-05-10T07:00:29;11.30;;;3.23;;
50483;SDS011;36409;52.168;20.878;2023-05-10T07:02:58;5.87;;;2.43;;
50483;SDS011;36409;52.168;20.878;2023-05-10T07:05:27;8.80;;;3.23;;
50483;SDS011;36409;52.168;20.878;2023-05-10T07:07:56;5.85;;;2.50;;
50483;SDS011;36409;52.168;20.878;2023-05-10T07:10:25;4.40;;;2.33;;
50483;SDS011;36409;52.168;20.878;2023-05-10T07:12:55;13.10;;;2.90;;
50483;SDS011;36409;52.168;20.878;2023-05-10T07:15:24;8.33;;;2.30;;
50483;SDS011;36409;52.168;20.878;2023-05-10T07:17:53;8.80;;;2.53;;
50483;SDS011;36409;52.168;20.878;2023-05-10T07:20:26;6.73;;;2.40;;
50483;SDS011;36409;52.168;20.878;2023-05-10T07:22:55;4.77;;;2.03;;
50483;SDS011;36409;52.168;20.878;2023-05-10T07:25:24;5.33;;;2.10;;
50483;SDS011;36409;52.168;20.878;2023-05-10T07:27:55;12.73;;;2.53;;
50483;SDS011;36409;52.168;20.878;2023-05-10T07:30:24;4.57;;;2.07;;
50483;SDS011;36409;52.168;20.878;2023-05-10T07:32:53;7.63;;;2.17;;
50483;SDS011;36409;52.168;20.878;2023-05-10T07:35:22;14.57;;;2.17;;
50483;SDS011;36409;52.168;20.878;2023-05-10T07:37:51;7.13;;;2.17;;
50483;SDS011;36409;52.168;20.878;2023-05-10T07:40:20;6.23;;;2.47;;
50483;SDS011;36409;52.168;20.878;2023-05-10T07:42:50;3.13;;;1.60;;
50483;SDS011;36409;52.168;20.878;2023-05-10T07:45:18;6.83;;;2.20;;
50483;SDS011;36409;52.168;20.878;2023-05-10T07:47:47;5.97;;;2.00;;
50483;SDS011;36409;52.168;20.878;2023-05-10T07:50:17;4.63;;;2.00;;
50483;SDS011;36409;52.168;20.878;2023-05-10T07:52:46;4.23;;;1.57;;
50483;SDS011;36409;52.168;20.878;2023-05-10T07:55:15;8.57;;;1.90;;
50483;SDS011;36409;52.168;20.878;2023-05-10T07:57:46;7.37;;;2.20;;
50483;SDS011;36409;52.168;20.878;2023-05-10T08:00:17;9.47;;;2.17;;
50483;SDS011;36409;52.168;20.878;2023-05-10T08:02:47;8.20;;;2.00;;
50483;SDS011;36409;52.168;20.878;2023-05-10T08:05:16;9.70;;;2.17;;
50483;SDS011;36409;52.168;20.878;2023-05-10T08:07:45;3.87;;;1.80;;
50483;SDS011;36409;52.168;20.878;2023-05-10T08:10:14;10.80;;;2.30;;
50483;SDS011;36409;52.168;20.878;2023-05-10T08:12:44;5.37;;;1.97;;
50483;SDS011;36409;52.168;20.878;2023-05-10T08:15:12;6.93;;;2.30;;
50483;SDS011;36409;52.168;20.878;2023-05-10T08:17:42;6.67;;;2.10;;
50483;SDS011;36409;52.168;20.878;2023-05-10T08:20:11;9.30;;;1.97;;
50483;SDS011;36409;52.168;20.878;2023-05-10T08:22:44;4.60;;;1.87;;
50483;SDS011;36409;52.168;20.878;2023-05-10T08:25:13;5.47;;;2.20;;
50483;SDS011;36409;52.168;20.878;2023-05-10T08:27:43;5.27;;;2.10;;
50483;SDS011;36409;52.168;20.878;2023-05-10T08:30:13;7.17;;;2.37;;
50483;SDS011;36409;52.168;20.878;2023-05-10T08:32:42;4.60;;;2.23;;
50483;SDS011;36409;52.168;20.878;2023-05-10T08:35:11;3.73;;;1.87;;
50483;SDS011;36409;52.168;20.878;2023-05-10T08:37:41;4.83;;;2.10;;
50483;SDS011;36409;52.168;20.878;2023-05-10T08:40:11;5.40;;;2.00;;
50483;SDS011;36409;52.168;20.878;2023-05-10T08:42:42;4.50;;;2.00;;
50483;SDS011;36409;52.168;20.878;2023-05-10T08:45:19;8.00;;;2.50;;
50483;SDS011;36409;52.168;20.878;2023-05-10T08:47:50;6.90;;;2.30;;
50483;SDS011;36409;52.168;20.878;2023-05-10T08:50:21;7.93;;;2.67;;
50483;SDS011;36409;52.168;20.878;2023-05-10T08:52:50;8.10;;;2.73;;
50483;SDS011;36409;52.168;20.878;2023-05-10T08:55:23;3.53;;;1.93;;
50483;SDS011;36409;52.168;20.878;2023-05-10T08:57:52;5.27;;;2.10;;
50483;SDS011;36409;52.168;20.878;2023-05-10T09:00:22;5.27;;;2.10;;
50483;SDS011;36409;52.168;20.878;2023-05-10T09:02:52;5.43;;;2.00;;
50483;SDS011;36409;52.168;20.878;2023-05-10T09:05:21;5.47;;;2.00;;
50483;SDS011;36409;52.168;20.878;2023-05-10T09:07:50;6.00;;;2.10;;
50483;SDS011;36409;52.168;20.878;2023-05-10T09:10:19;7.70;;;2.27;;
50483;SDS011;36409;52.168;20.878;2023-05-10T09:12:49;6.73;;;2.00;;
50483;SDS011;36409;52.168;20.878;2023-05-10T09:15:18;7.37;;;2.17;;
50483;SDS011;36409;52.168;20.878;2023-05-10T09:17:48;5.37;;;2.00;;
50483;SDS011;36409;52.168;20.878;2023-05-10T09:20:18;7.20;;;2.60;;
50483;SDS011;36409;52.168;20.878;2023-05-10T09:22:47;5.73;;;2.33;;
50483;SDS011;36409;52.168;20.878;2023-05-10T09:25:16;5.50;;;2.20;;
50483;SDS011;36409;52.168;20.878;2023-05-10T09:27:47;5.30;;;2.30;;
50483;SDS011;36409;52.168;20.878;2023-05-10T09:30:17;5.97;;;2.10;;
50483;SDS011;36409;52.168;20.878;2023-05-10T09:32:53;5.33;;;2.20;;
50483;SDS011;36409;52.168;20.878;2023-05-10T09:35:24;7.37;;;2.20;;
50483;SDS011;36409;52.168;20.878;2023-05-10T09:37:57;6.13;;;2.70;;
50483;SDS011;36409;52.168;20.878;2023-05-10T09:40:27;4.90;;;2.53;;
50483;SDS011;36409;52.168;20.878;2023-05-10T09:42:58;6.10;;;2.37;;
50483;SDS011;36409;52.168;20.878;2023-05-10T09:45:28;6.90;;;2.30;;
50483;SDS011;36409;52.168;20.878;2023-05-10T09:48:01;5.03;;;2.13;;
50483;SDS011;36409;52.168;20.878;2023-05-10T09:50:31;9.30;;;2.33;;
50483;SDS011;36409;52.168;20.878;2023-05-10T09:53:01;3.97;;;2.03;;
50483;SDS011;36409;52.168;20.878;2023-05-10T09:55:38;5.63;;;2.23;;
50483;SDS011;36409;52.168;20.878;2023-05-10T09:58:09;6.67;;;2.07;;
50483;SDS011;36409;52.168;20.878;2023-05-10T10:00:39;7.27;;;2.00;;
50483;SDS011;36409;52.168;20.878;2023-05-10T10:03:12;9.30;;;2.00;;
50483;SDS011;36409;52.168;20.878;2023-05-10T10:05:43;6.87;;;2.40;;
50483;SDS011;36409;52.168;20.878;2023-05-10T10:08:14;4.60;;;2.00;;
50483;SDS011;36409;52.168;20.878;2023-05-10T10:10:43;5.83;;;2.40;;
50483;SDS011;36409;52.168;20.878;2023-05-10T10:13:14;6.63;;;2.23;;
50483;SDS011;36409;52.168;20.878;2023-05-10T10:15:44;12.90;;;2.73;;
50483;SDS011;36409;52.168;20.878;2023-05-10T10:18:15;3.77;;;2.10;;
50483;SDS011;36409;52.168;20.878;2023-05-10T10:20:45;4.60;;;1.90;;
50483;SDS011;36409;52.168;20.878;2023-05-10T10:23:14;7.30;;;2.10;;
50483;SDS011;36409;52.168;20.878;2023-05-10T10:25:45;5.80;;;2.00;;
50483;SDS011;36409;52.168;20.878;2023-05-10T10:28:22;5.40;;;2.00;;
50483;SDS011;36409;52.168;20.878;2023-05-10T10:31:00;5.00;;;2.10;;
50483;SDS011;36409;52.168;20.878;2023-05-10T10:33:47;7.27;;;2.10;;
50483;SDS011;36409;52.168;20.878;2023-05-10T10:36:24;5.47;;;2.12;;
50483;SDS011;36409;52.168;20.878;2023-05-10T10:38:58;4.20;;;2.10;;
50483;SDS011;36409;52.168;20.878;2023-05-10T10:41:29;3.80;;;1.77;;
50483;SDS011;36409;52.168;20.878;2023-05-10T10:47:06;7.57;;;2.30;;
50483;SDS011;36409;52.168;20.878;2023-05-10T10:49:43;5.47;;;2.10;;
50483;SDS011;36409;52.168;20.878;2023-05-10T10:52:21;9.40;;;2.37;;
50483;SDS011;36409;52.168;20.878;2023-05-10T10:54:59;9.60;;;1.80;;
50483;SDS011;36409;52.168;20.878;2023-05-10T10:57:31;7.07;;;2.20;;
50483;SDS011;36409;52.168;20.878;2023-05-10T11:03:03;6.10;;;2.10;;
50483;SDS011;36409;52.168;20.878;2023-05-10T11:05:38;4.40;;;2.40;;
50483;SDS011;36409;52.168;20.878;2023-05-10T11:08:18;7.55;;;2.70;;
50483;SDS011;36409;52.168;20.878;2023-05-10T11:11:01;4.73;;;2.30;;
50483;SDS011;36409;52.168;20.878;2023-05-10T11:13:40;5.53;;;2.30;;
50483;SDS011;36409;52.168;20.878;2023-05-10T11:18:52;7.27;;;2.50;;
50483;SDS011;36409;52.168;20.878;2023-05-10T11:21:24;5.87;;;2.20;;
50483;SDS011;36409;52.168;20.878;2023-05-10T11:23:54;6.17;;;2.10;;
50483;SDS011;36409;52.168;20.878;2023-05-10T11:26:25;7.53;;;2.13;;
50483;SDS011;36409;52.168;20.878;2023-05-10T11:29:02;3.97;;;2.00;;
50483;SDS011;36409;52.168;20.878;2023-05-10T11:31:32;3.77;;;1.63;;
50483;SDS011;36409;52.168;20.878;2023-05-10T11:34:09;5.07;;;2.07;;
50483;SDS011;36409;52.168;20.878;2023-05-10T11:36:39;8.73;;;2.10;;
50483;SDS011;36409;52.168;20.878;2023-05-10T11:39:08;5.60;;;2.30;;
50483;SDS011;36409;52.168;20.878;2023-05-10T11:41:39;6.15;;;2.20;;
50483;SDS011;36409;52.168;20.878;2023-05-10T11:44:09;4.70;;;1.90;;
50483;SDS011;36409;52.168;20.878;2023-05-10T11:46:39;6.43;;;2.10;;
50483;SDS011;36409;52.168;20.878;2023-05-10T11:49:08;11.10;;;2.40;;
50483;SDS011;36409;52.168;20.878;2023-05-10T11:51:37;6.80;;;2.13;;
50483;SDS011;36409;52.168;20.878;2023-05-10T11:54:07;5.57;;;2.07;;
50483;SDS011;36409;52.168;20.878;2023-05-10T11:56:38;4.93;;;1.83;;
50483;SDS011;36409;52.168;20.878;2023-05-10T11:59:08;3.83;;;1.80;;
50483;SDS011;36409;52.168;20.878;2023-05-10T12:01:36;5.17;;;2.00;;
50483;SDS011;36409;52.168;20.878;2023-05-10T12:04:06;5.80;;;2.00;;
50483;SDS011;36409;52.168;20.878;2023-05-10T12:06:37;5.40;;;2.10;;
50483;SDS011;36409;52.168;20.878;2023-05-10T12:09:08;6.05;;;2.00;;
50483;SDS011;36409;52.168;20.878;2023-05-10T12:11:38;9.53;;;2.37;;
50483;SDS011;36409;52.168;20.878;2023-05-10T12:16:39;7.23;;;2.10;;
50483;SDS011;36409;52.168;20.878;2023-05-10T12:19:09;7.40;;;1.83;;
50483;SDS011;36409;52.168;20.878;2023-05-10T12:21:38;6.63;;;2.10;;
50483;SDS011;36409;52.168;20.878;2023-05-10T12:24:08;6.80;;;2.33;;
50483;SDS011;36409;52.168;20.878;2023-05-10T12:26:37;8.60;;;2.03;;
50483;SDS011;36409;52.168;20.878;2023-05-10T12:29:25;6.53;;;2.20;;
50483;SDS011;36409;52.168;20.878;2023-05-10T12:31:58;5.08;;;1.90;;
50483;SDS011;36409;52.168;20.878;2023-05-10T12:34:29;5.67;;;2.07;;
50483;SDS011;36409;52.168;20.878;2023-05-10T12:37:03;6.20;;;2.13;;
50483;SDS011;36409;52.168;20.878;2023-05-10T12:39:42;7.53;;;2.17;;
50483;SDS011;36409;52.168;20.878;2023-05-10T12:42:13;6.40;;;2.37;;
50483;SDS011;36409;52.168;20.878;2023-05-10T12:44:41;10.87;;;2.63;;
50483;SDS011;36409;52.168;20.878;2023-05-10T12:47:11;7.47;;;2.17;;
50483;SDS011;36409;52.168;20.878;2023-05-10T12:49:40;7.90;;;2.07;;
50483;SDS011;36409;52.168;20.878;2023-05-10T12:52:09;8.30;;;2.20;;
50483;SDS011;36409;52.168;20.878;2023-05-10T12:54:37;8.53;;;2.30;;
50483;SDS011;36409;52.168;20.878;2023-05-10T12:57:06;7.30;;;2.73;;
50483;SDS011;36409;52.168;20.878;2023-05-10T12:59:35;9.97;;;2.50;;
50483;SDS011;36409;52.168;20.878;2023-05-10T13:02:05;7.83;;;2.50;;
50483;SDS011;36409;52.168;20.878;2023-05-10T13:04:35;5.17;;;1.90;;
50483;SDS011;36409;52.168;20.878;2023-05-10T13:07:06;4.77;;;2.17;;
50483;SDS011;36409;52.168;20.878;2023-05-10T13:09:36;7.40;;;2.70;;
50483;SDS011;36409;52.168;20.878;2023-05-10T13:12:05;8.70;;;1.90;;
50483;SDS011;36409;52.168;20.878;2023-05-10T13:14:37;4.20;;;2.17;;
50483;SDS011;36409;52.168;20.878;2023-05-10T13:17:08;5.13;;;1.73;;
50483;SDS011;36409;52.168;20.878;2023-05-10T13:19:37;3.70;;;1.93;;
50483;SDS011;36409;52.168;20.878;2023-05-10T13:22:06;6.67;;;2.13;;
50483;SDS011;36409;52.168;20.878;2023-05-10T13:24:37;4.97;;;1.77;;
50483;SDS011;36409;52.168;20.878;2023-05-10T13:27:07;7.43;;;1.90;;
50483;SDS011;36409;52.168;20.878;2023-05-10T13:29:36;4.13;;;1.73;;
50483;SDS011;36409;52.168;20.878;2023-05-10T13:32:09;10.55;;;2.37;;
50483;SDS011;36409;52.168;20.878;2023-05-10T13:34:39;12.73;;;2.27;;
50483;SDS011;36409;52.168;20.878;2023-05-10T13:37:08;8.07;;;2.90;;
50483;SDS011;36409;52.168;20.878;2023-05-10T13:39:37;4.33;;;1.90;;
50483;SDS011;36409;52.168;20.878;2023-05-10T13:42:07;4.33;;;1.93;;
50483;SDS011;36409;52.168;20.878;2023-05-10T13:44:36;4.37;;;1.97;;
50483;SDS011;36409;52.168;20.878;2023-05-10T13:47:05;7.77;;;2.17;;
50483;SDS011;36409;52.168;20.878;2023-05-10T13:49:36;7.23;;;1.90;;
50483;SDS011;36409;52.168;20.878;2023-05-10T13:52:05;5.33;;;1.87;;
50483;SDS011;36409;52.168;20.878;2023-05-10T13:54:35;5.63;;;2.10;;
50483;SDS011;36409;52.168;20.878;2023-05-10T13:57:05;5.53;;;1.90;;
50483;SDS011;36409;52.168;20.878;2023-05-10T13:59:36;4.17;;;1.87;;
50483;SDS011;36409;52.168;20.878;2023-05-10T14:02:06;4.67;;;2.20;;
50483;SDS011;36409;52.168;20.878;2023-05-10T14:04:35;3.47;;;2.10;;
50483;SDS011;36409;52.168;20.878;2023-05-10T14:07:05;7.10;;;2.10;;
50483;SDS011;36409;52.168;20.878;2023-05-10T14:09:35;7.43;;;2.17;;
50483;SDS011;36409;52.168;20.878;2023-05-10T14:12:05;6.77;;;1.97;;
50483;SDS011;36409;52.168;20.878;2023-05-10T14:14:35;5.10;;;1.70;;
50483;SDS011;36409;52.168;20.878;2023-05-10T14:17:04;5.20;;;1.97;;
50483;SDS011;36409;52.168;20.878;2023-05-10T14:19:38;7.63;;;2.27;;
50483;SDS011;36409;52.168;20.878;2023-05-10T14:22:08;5.63;;;1.90;;
50483;SDS011;36409;52.168;20.878;2023-05-10T14:24:37;5.67;;;2.20;;
50483;SDS011;36409;52.168;20.878;2023-05-10T14:27:06;5.67;;;2.00;;
50483;SDS011;36409;52.168;20.878;2023-05-10T14:29:35;6.33;;;1.90;;
50483;SDS011;36409;52.168;20.878;2023-05-10T14:32:06;4.03;;;2.00;;
50483;SDS011;36409;52.168;20.878;2023-05-10T14:34:35;4.83;;;1.83;;
50483;SDS011;36409;52.168;20.878;2023-05-10T14:37:06;8.70;;;1.93;;
50483;SDS011;36409;52.168;20.878;2023-05-10T14:39:38;3.50;;;1.87;;
50483;SDS011;36409;52.168;20.878;2023-05-10T14:42:07;5.43;;;2.13;;
50483;SDS011;36409;52.168;20.878;2023-05-10T14:44:37;5.67;;;2.17;;
50483;SDS011;36409;52.168;20.878;2023-05-10T14:47:06;6.67;;;2.20;;
50483;SDS011;36409;52.168;20.878;2023-05-10T14:49:38;5.87;;;2.30;;
50483;SDS011;36409;52.168;20.878;2023-05-10T14:52:08;7.33;;;2.23;;
50483;SDS011;36409;52.168;20.878;2023-05-10T14:54:37;6.17;;;2.03;;
50483;SDS011;36409;52.168;20.878;2023-05-10T14:57:06;5.10;;;2.10;;
50483;SDS011;36409;52.168;20.878;2023-05-10T14:59:35;7.00;;;2.80;;
50483;SDS011;36409;52.168;20.878;2023-05-10T15:02:06;7.10;;;2.50;;
50483;SDS011;36409;52.168;20.878;2023-05-10T15:04:37;5.43;;;2.10;;
50483;SDS011;36409;52.168;20.878;2023-05-10T15:07:10;7.78;;;2.02;;
50483;SDS011;36409;52.168;20.878;2023-05-10T15:09:42;4.20;;;1.80;;